WAT2045 KRAP-KMSP
Flight info
| Callsign | WAT2045 |
|---|---|
| Flight time | 1h 10m |
| Altitude | 31000 |
| Route | KP87A UFFDA TORGY4 |
| Aircraft | E75L/M-SDE3GILORVW/S |
Departure
| Time | 2026-04-23 02:31 |
|---|---|
| Airport | Rapid City Regional Airport (KRAP) |
Arrival
| Time | 2026-04-23 03:41 |
|---|---|
| Airport | Minneapolis–Saint Paul International Airport / Wold–Chamberlain Field (KMSP) |
| Time | Latitude | Longitude | Altitude | Speed | Heading |
|---|---|---|---|---|---|
| 2026-04-23 02:01 | 44.03910 | -103.05972 | 3154 ft | 0 kts | 334° |
| 2026-04-23 02:21 | 44.03905 | -103.05968 | 3154 ft | 3 kts | 334° |
| 2026-04-23 02:21 | 44.03888 | -103.05957 | 3154 ft | 3 kts | 334° |
| 2026-04-23 02:22 | 44.03872 | -103.05953 | 3154 ft | 0 kts | 34° |
| 2026-04-23 02:24 | 44.03879 | -103.05946 | 3154 ft | 2 kts | 34° |
| 2026-04-23 02:24 | 44.03892 | -103.05934 | 3154 ft | 3 kts | 34° |
| 2026-04-23 02:24 | 44.03911 | -103.05915 | 3154 ft | 4 kts | 34° |
| 2026-04-23 02:25 | 44.03936 | -103.05892 | 3154 ft | 5 kts | 36° |
| 2026-04-23 02:25 | 44.03963 | -103.05857 | 3155 ft | 6 kts | 44° |
| 2026-04-23 02:25 | 44.03992 | -103.05806 | 3155 ft | 8 kts | 62° |
| 2026-04-23 02:25 | 44.04020 | -103.05734 | 3155 ft | 9 kts | 64° |
| 2026-04-23 02:26 | 44.03994 | -103.05665 | 3155 ft | 10 kts | 146° |
| 2026-04-23 02:26 | 44.03925 | -103.05615 | 3154 ft | 12 kts | 153° |
| 2026-04-23 02:26 | 44.03840 | -103.05554 | 3153 ft | 15 kts | 153° |
| 2026-04-23 02:26 | 44.03744 | -103.05480 | 3152 ft | 17 kts | 150° |
| 2026-04-23 02:27 | 44.03636 | -103.05399 | 3150 ft | 19 kts | 152° |
| 2026-04-23 02:27 | 44.03517 | -103.05311 | 3148 ft | 17 kts | 152° |
| 2026-04-23 02:27 | 44.03407 | -103.05228 | 3147 ft | 19 kts | 150° |
| 2026-04-23 02:27 | 44.03328 | -103.05169 | 3145 ft | 10 kts | 150° |
| 2026-04-23 02:28 | 44.03313 | -103.05093 | 3144 ft | 0 kts | 62° |
| 2026-04-23 02:29 | 44.03319 | -103.05078 | 3144 ft | 6 kts | 62° |
| 2026-04-23 02:29 | 44.03355 | -103.05014 | 3143 ft | 9 kts | 23° |
| 2026-04-23 02:30 | 44.03396 | -103.05027 | 3144 ft | 4 kts | 329° |
| 2026-04-23 02:30 | 44.03421 | -103.05047 | 3144 ft | 18 kts | 330° |
| 2026-04-23 02:30 | 44.03753 | -103.05293 | 3152 ft | 90 kts | 332° |
| 2026-04-23 02:30 | 44.04506 | -103.05845 | 3167 ft | 153 kts | 331° |
| 2026-04-23 02:31 | 44.05524 | -103.06610 | 3654 ft | 177 kts | 330° |
| 2026-04-23 02:31 | 44.06641 | -103.07488 | 4151 ft | 194 kts | 329° |
| 2026-04-23 02:31 | 44.07865 | -103.08468 | 4796 ft | 206 kts | 329° |
| 2026-04-23 02:31 | 44.09130 | -103.09484 | 5548 ft | 213 kts | 329° |
| 2026-04-23 02:32 | 44.10415 | -103.10519 | 6280 ft | 220 kts | 329° |
| 2026-04-23 02:32 | 44.11897 | -103.11299 | 6813 ft | 238 kts | 351° |
| 2026-04-23 02:32 | 44.13598 | -103.11153 | 7393 ft | 260 kts | 14° |
| 2026-04-23 02:32 | 44.15230 | -103.09890 | 7935 ft | 281 kts | 42° |
| 2026-04-23 02:33 | 44.16356 | -103.07634 | 8720 ft | 290 kts | 69° |
| 2026-04-23 02:33 | 44.16802 | -103.04882 | 9613 ft | 294 kts | 82° |
| 2026-04-23 02:33 | 44.17080 | -103.02051 | 10521 ft | 296 kts | 81° |
| 2026-04-23 02:33 | 44.17425 | -102.99138 | 11059 ft | 313 kts | 80° |
| 2026-04-23 02:34 | 44.17794 | -102.96064 | 11607 ft | 329 kts | 81° |
| 2026-04-23 02:34 | 44.18160 | -102.92840 | 12148 ft | 344 kts | 81° |
| 2026-04-23 02:34 | 44.18534 | -102.89490 | 12812 ft | 354 kts | 81° |
| 2026-04-23 02:34 | 44.18923 | -102.86083 | 13634 ft | 359 kts | 81° |
| 2026-04-23 02:35 | 44.19324 | -102.82624 | 14498 ft | 363 kts | 81° |
| 2026-04-23 02:35 | 44.19752 | -102.79138 | 15387 ft | 368 kts | 80° |
| 2026-04-23 02:35 | 44.20198 | -102.75611 | 16280 ft | 372 kts | 80° |
| 2026-04-23 02:35 | 44.20646 | -102.72040 | 17095 ft | 376 kts | 80° |
| 2026-04-23 02:36 | 44.21101 | -102.68430 | 17855 ft | 381 kts | 79° |
| 2026-04-23 02:36 | 44.21565 | -102.64776 | 18596 ft | 385 kts | 80° |
| 2026-04-23 02:36 | 44.22024 | -102.61070 | 19320 ft | 390 kts | 80° |
| 2026-04-23 02:36 | 44.22477 | -102.57374 | 20048 ft | 394 kts | 80° |
| 2026-04-23 02:37 | 44.22936 | -102.53576 | 20773 ft | 399 kts | 81° |
| 2026-04-23 02:37 | 44.23382 | -102.49740 | 21436 ft | 403 kts | 81° |
| 2026-04-23 02:37 | 44.23830 | -102.45868 | 22057 ft | 406 kts | 81° |
| 2026-04-23 02:37 | 44.24268 | -102.41959 | 22623 ft | 410 kts | 81° |
| 2026-04-23 02:38 | 44.24698 | -102.38005 | 23170 ft | 414 kts | 81° |
| 2026-04-23 02:38 | 44.25118 | -102.34021 | 23727 ft | 417 kts | 82° |
| 2026-04-23 02:38 | 44.25532 | -102.29988 | 24225 ft | 421 kts | 82° |
| 2026-04-23 02:38 | 44.25944 | -102.25926 | 24741 ft | 425 kts | 82° |
| 2026-04-23 02:39 | 44.26359 | -102.21825 | 25266 ft | 428 kts | 82° |
| 2026-04-23 02:39 | 44.26763 | -102.17701 | 25850 ft | 429 kts | 82° |
| 2026-04-23 02:39 | 44.27171 | -102.13585 | 26533 ft | 427 kts | 82° |
| 2026-04-23 02:39 | 44.27589 | -102.09491 | 27195 ft | 425 kts | 82° |
| 2026-04-23 02:40 | 44.28006 | -102.05411 | 27799 ft | 424 kts | 82° |
| 2026-04-23 02:40 | 44.28417 | -102.01342 | 28363 ft | 423 kts | 82° |
| 2026-04-23 02:40 | 44.28816 | -101.97325 | 28908 ft | 422 kts | 82° |
| 2026-04-23 02:40 | 44.29210 | -101.93269 | 29443 ft | 421 kts | 82° |
| 2026-04-23 02:41 | 44.29598 | -101.89216 | 29951 ft | 421 kts | 82° |
| 2026-04-23 02:41 | 44.29983 | -101.85177 | 30438 ft | 420 kts | 82° |
| 2026-04-23 02:41 | 44.30357 | -101.81139 | 30906 ft | 419 kts | 83° |
| 2026-04-23 02:41 | 44.30719 | -101.77095 | 31084 ft | 423 kts | 83° |
| 2026-04-23 02:42 | 44.31002 | -101.73026 | 31035 ft | 419 kts | 85° |
| 2026-04-23 02:42 | 44.31507 | -101.64982 | 31022 ft | 415 kts | 85° |
| 2026-04-23 02:43 | 44.31985 | -101.56958 | 31011 ft | 414 kts | 85° |
| 2026-04-23 02:43 | 44.32448 | -101.48950 | 31009 ft | 414 kts | 85° |
| 2026-04-23 02:44 | 44.32897 | -101.40944 | 31010 ft | 414 kts | 85° |
| 2026-04-23 02:44 | 44.33345 | -101.32937 | 31011 ft | 413 kts | 85° |
| 2026-04-23 02:45 | 44.33784 | -101.24928 | 31012 ft | 413 kts | 85° |
| 2026-04-23 02:45 | 44.34220 | -101.16927 | 31012 ft | 413 kts | 85° |
| 2026-04-23 02:46 | 44.34646 | -101.08929 | 31014 ft | 413 kts | 85° |
| 2026-04-23 02:46 | 44.35063 | -101.00981 | 31014 ft | 413 kts | 85° |
| 2026-04-23 02:47 | 44.35477 | -100.92984 | 31016 ft | 413 kts | 86° |
| 2026-04-23 02:47 | 44.35889 | -100.84983 | 31018 ft | 413 kts | 86° |
| 2026-04-23 02:48 | 44.36300 | -100.76988 | 31019 ft | 413 kts | 86° |
| 2026-04-23 02:48 | 44.36701 | -100.68992 | 31020 ft | 413 kts | 86° |
| 2026-04-23 02:49 | 44.37092 | -100.60991 | 31021 ft | 413 kts | 86° |
| 2026-04-23 02:49 | 44.37480 | -100.52986 | 31013 ft | 412 kts | 86° |
| 2026-04-23 02:50 | 44.37792 | -100.46339 | 31001 ft | 412 kts | 86° |
| 2026-04-23 02:50 | 44.38163 | -100.38349 | 31001 ft | 412 kts | 86° |
| 2026-04-23 02:51 | 44.38530 | -100.30355 | 31002 ft | 412 kts | 86° |
| 2026-04-23 02:51 | 44.38899 | -100.22362 | 31001 ft | 412 kts | 86° |
| 2026-04-23 02:52 | 44.39262 | -100.14368 | 31001 ft | 412 kts | 86° |
| 2026-04-23 02:52 | 44.39617 | -100.06369 | 31001 ft | 412 kts | 86° |
| 2026-04-23 02:53 | 44.39964 | -99.98381 | 31001 ft | 412 kts | 86° |
| 2026-04-23 02:53 | 44.40308 | -99.90384 | 31002 ft | 412 kts | 86° |
| 2026-04-23 02:54 | 44.40637 | -99.82370 | 31001 ft | 412 kts | 86° |
| 2026-04-23 02:54 | 44.40975 | -99.74366 | 31002 ft | 412 kts | 86° |
| 2026-04-23 02:55 | 44.41302 | -99.66357 | 31002 ft | 412 kts | 87° |
| 2026-04-23 02:55 | 44.41620 | -99.58395 | 31002 ft | 412 kts | 86° |
| 2026-04-23 02:56 | 44.41941 | -99.50378 | 31002 ft | 412 kts | 86° |
| 2026-04-23 02:56 | 44.42249 | -99.42360 | 31002 ft | 413 kts | 87° |
| 2026-04-23 02:57 | 44.42550 | -99.34348 | 31001 ft | 413 kts | 87° |
| 2026-04-23 02:57 | 44.42843 | -99.26325 | 31001 ft | 413 kts | 87° |
| 2026-04-23 02:58 | 44.43132 | -99.18310 | 31001 ft | 413 kts | 87° |
| 2026-04-23 02:58 | 44.43419 | -99.10293 | 31001 ft | 413 kts | 87° |
| 2026-04-23 02:59 | 44.43697 | -99.02330 | 31002 ft | 412 kts | 87° |
| 2026-04-23 02:59 | 44.43979 | -98.94318 | 31002 ft | 412 kts | 87° |
| 2026-04-23 03:00 | 44.44249 | -98.86311 | 31002 ft | 412 kts | 87° |
| 2026-04-23 03:00 | 44.44512 | -98.78288 | 31001 ft | 412 kts | 87° |
| 2026-04-23 03:01 | 44.44770 | -98.70286 | 31002 ft | 411 kts | 87° |
| 2026-04-23 03:01 | 44.45020 | -98.62277 | 31002 ft | 412 kts | 88° |
| 2026-04-23 03:02 | 44.45265 | -98.54278 | 31001 ft | 411 kts | 88° |
| 2026-04-23 03:02 | 44.45510 | -98.46271 | 31001 ft | 411 kts | 87° |
| 2026-04-23 03:03 | 44.45750 | -98.38323 | 31002 ft | 411 kts | 88° |
| 2026-04-23 03:03 | 44.45979 | -98.30324 | 31002 ft | 411 kts | 88° |
| 2026-04-23 03:04 | 44.46203 | -98.22322 | 31002 ft | 411 kts | 88° |
| 2026-04-23 03:04 | 44.46426 | -98.14321 | 31002 ft | 411 kts | 88° |
| 2026-04-23 03:05 | 44.46640 | -98.06317 | 31001 ft | 411 kts | 88° |
| 2026-04-23 03:05 | 44.46847 | -97.98314 | 31001 ft | 411 kts | 88° |
| 2026-04-23 03:06 | 44.47044 | -97.90309 | 31001 ft | 411 kts | 88° |
| 2026-04-23 03:06 | 44.47244 | -97.82301 | 31002 ft | 412 kts | 88° |
| 2026-04-23 03:07 | 44.47434 | -97.74287 | 31002 ft | 412 kts | 88° |
| 2026-04-23 03:07 | 44.47614 | -97.66271 | 31002 ft | 412 kts | 88° |
| 2026-04-23 03:08 | 44.47800 | -97.58249 | 31002 ft | 412 kts | 88° |
| 2026-04-23 03:08 | 44.47985 | -97.50229 | 31001 ft | 412 kts | 88° |
| 2026-04-23 03:09 | 44.48152 | -97.42203 | 31002 ft | 412 kts | 88° |
| 2026-04-23 03:09 | 44.48318 | -97.34234 | 31002 ft | 412 kts | 88° |
| 2026-04-23 03:10 | 44.48471 | -97.26207 | 31002 ft | 412 kts | 88° |
| 2026-04-23 03:10 | 44.48621 | -97.18183 | 31002 ft | 412 kts | 88° |
| 2026-04-23 03:11 | 44.48774 | -97.10158 | 31001 ft | 412 kts | 88° |
| 2026-04-23 03:11 | 44.48917 | -97.02129 | 31001 ft | 412 kts | 89° |
| 2026-04-23 03:12 | 44.49051 | -96.94114 | 31002 ft | 412 kts | 89° |
| 2026-04-23 03:12 | 44.49184 | -96.86088 | 31001 ft | 412 kts | 89° |
| 2026-04-23 03:13 | 44.49305 | -96.78061 | 31003 ft | 412 kts | 89° |
| 2026-04-23 03:13 | 44.49422 | -96.70035 | 31003 ft | 412 kts | 89° |
| 2026-04-23 03:14 | 44.49538 | -96.62007 | 31002 ft | 412 kts | 89° |
| 2026-04-23 03:14 | 44.49647 | -96.54028 | 31001 ft | 412 kts | 89° |
| 2026-04-23 03:15 | 44.49746 | -96.45997 | 31001 ft | 412 kts | 89° |
| 2026-04-23 03:15 | 44.49841 | -96.37976 | 31002 ft | 412 kts | 89° |
| 2026-04-23 03:16 | 44.49931 | -96.29952 | 31002 ft | 412 kts | 89° |
| 2026-04-23 03:16 | 44.50052 | -96.17902 | 31002 ft | 412 kts | 89° |
| 2026-04-23 03:17 | 44.50134 | -96.09876 | 31001 ft | 412 kts | 89° |
| 2026-04-23 03:17 | 44.49629 | -96.01953 | 31020 ft | 412 kts | 96° |
| 2026-04-23 03:18 | 44.49119 | -95.93965 | 30999 ft | 411 kts | 94° |
| 2026-04-23 03:18 | 44.48709 | -95.85969 | 31000 ft | 411 kts | 94° |
| 2026-04-23 03:19 | 44.48345 | -95.77982 | 31001 ft | 411 kts | 94° |
| 2026-04-23 03:19 | 44.48000 | -95.69991 | 31001 ft | 411 kts | 93° |
| 2026-04-23 03:20 | 44.47662 | -95.62050 | 31000 ft | 411 kts | 93° |
| 2026-04-23 03:20 | 44.47323 | -95.54063 | 31001 ft | 411 kts | 93° |
| 2026-04-23 03:21 | 44.46981 | -95.46074 | 31001 ft | 411 kts | 93° |
| 2026-04-23 03:21 | 44.46634 | -95.38084 | 31002 ft | 411 kts | 94° |
| 2026-04-23 03:22 | 44.46283 | -95.30098 | 31000 ft | 411 kts | 94° |
| 2026-04-23 03:22 | 44.45924 | -95.22078 | 30579 ft | 415 kts | 94° |
| 2026-04-23 03:23 | 44.46003 | -95.18067 | 30317 ft | 413 kts | 82° |
| 2026-04-23 03:23 | 44.46696 | -95.14185 | 29688 ft | 417 kts | 71° |
| 2026-04-23 03:23 | 44.47625 | -95.10343 | 29125 ft | 417 kts | 71° |
| 2026-04-23 03:23 | 44.48541 | -95.06495 | 28556 ft | 416 kts | 71° |
| 2026-04-23 03:24 | 44.49452 | -95.02647 | 27978 ft | 416 kts | 71° |
| 2026-04-23 03:24 | 44.50357 | -94.98806 | 27434 ft | 415 kts | 71° |
| 2026-04-23 03:24 | 44.51259 | -94.94957 | 26881 ft | 416 kts | 71° |
| 2026-04-23 03:24 | 44.52160 | -94.91103 | 26338 ft | 417 kts | 72° |
| 2026-04-23 03:25 | 44.53057 | -94.87245 | 26030 ft | 413 kts | 72° |
| 2026-04-23 03:25 | 44.53951 | -94.83378 | 25413 ft | 421 kts | 72° |
| 2026-04-23 03:25 | 44.54854 | -94.79481 | 24898 ft | 419 kts | 72° |
| 2026-04-23 03:25 | 44.55748 | -94.75605 | 24310 ft | 416 kts | 72° |
| 2026-04-23 03:26 | 44.56629 | -94.71770 | 23767 ft | 411 kts | 72° |
| 2026-04-23 03:26 | 44.57500 | -94.67969 | 23221 ft | 407 kts | 72° |
| 2026-04-23 03:26 | 44.58360 | -94.64206 | 22685 ft | 403 kts | 72° |
| 2026-04-23 03:26 | 44.59210 | -94.60475 | 22152 ft | 400 kts | 72° |
| 2026-04-23 03:27 | 44.60051 | -94.56776 | 21628 ft | 396 kts | 72° |
| 2026-04-23 03:27 | 44.60884 | -94.53097 | 21100 ft | 393 kts | 72° |
| 2026-04-23 03:27 | 44.61696 | -94.49502 | 20587 ft | 390 kts | 72° |
| 2026-04-23 03:27 | 44.62512 | -94.45882 | 20070 ft | 387 kts | 72° |
| 2026-04-23 03:28 | 44.63319 | -94.42295 | 19560 ft | 384 kts | 72° |
| 2026-04-23 03:28 | 44.64117 | -94.38734 | 19053 ft | 381 kts | 72° |
| 2026-04-23 03:28 | 44.64907 | -94.35197 | 18550 ft | 378 kts | 72° |
| 2026-04-23 03:28 | 44.65692 | -94.31680 | 18049 ft | 375 kts | 72° |
| 2026-04-23 03:29 | 44.66469 | -94.28191 | 17550 ft | 373 kts | 72° |
| 2026-04-23 03:29 | 44.67241 | -94.24729 | 17060 ft | 370 kts | 72° |
| 2026-04-23 03:29 | 44.68009 | -94.21292 | 16569 ft | 367 kts | 72° |
| 2026-04-23 03:29 | 44.68780 | -94.17881 | 16085 ft | 365 kts | 72° |
| 2026-04-23 03:30 | 44.69543 | -94.14490 | 15603 ft | 362 kts | 72° |
| 2026-04-23 03:30 | 44.70300 | -94.11123 | 15118 ft | 360 kts | 72° |
| 2026-04-23 03:30 | 44.71046 | -94.07798 | 14641 ft | 353 kts | 72° |
| 2026-04-23 03:30 | 44.71774 | -94.04548 | 14171 ft | 345 kts | 72° |
| 2026-04-23 03:31 | 44.72486 | -94.01365 | 13720 ft | 338 kts | 72° |
| 2026-04-23 03:31 | 44.73185 | -93.98237 | 13276 ft | 332 kts | 72° |
| 2026-04-23 03:31 | 44.73869 | -93.95174 | 12843 ft | 326 kts | 72° |
| 2026-04-23 03:31 | 44.74540 | -93.92160 | 12405 ft | 320 kts | 72° |
| 2026-04-23 03:32 | 44.75386 | -93.89310 | 11988 ft | 314 kts | 55° |
| 2026-04-23 03:32 | 44.76856 | -93.87105 | 11621 ft | 306 kts | 41° |
| 2026-04-23 03:32 | 44.78422 | -93.85157 | 11186 ft | 303 kts | 41° |
| 2026-04-23 03:32 | 44.79977 | -93.83182 | 10792 ft | 299 kts | 41° |
| 2026-04-23 03:33 | 44.81512 | -93.81223 | 10391 ft | 296 kts | 41° |
| 2026-04-23 03:33 | 44.83025 | -93.79282 | 10001 ft | 293 kts | 41° |
| 2026-04-23 03:33 | 44.84521 | -93.77354 | 9612 ft | 290 kts | 42° |
| 2026-04-23 03:33 | 44.86001 | -93.75442 | 9233 ft | 288 kts | 42° |
| 2026-04-23 03:34 | 44.87468 | -93.73537 | 8850 ft | 286 kts | 42° |
| 2026-04-23 03:34 | 44.88928 | -93.71640 | 8468 ft | 284 kts | 42° |
| 2026-04-23 03:34 | 44.90378 | -93.69749 | 8097 ft | 283 kts | 42° |
| 2026-04-23 03:34 | 44.91840 | -93.67887 | 7722 ft | 282 kts | 41° |
| 2026-04-23 03:35 | 44.93116 | -93.65811 | 7339 ft | 281 kts | 60° |
| 2026-04-23 03:35 | 44.93747 | -93.63222 | 6999 ft | 279 kts | 76° |
| 2026-04-23 03:35 | 44.94183 | -93.60546 | 6609 ft | 280 kts | 76° |
| 2026-04-23 03:35 | 44.94630 | -93.57910 | 6238 ft | 279 kts | 76° |
| 2026-04-23 03:36 | 44.95083 | -93.55257 | 5866 ft | 278 kts | 76° |
| 2026-04-23 03:36 | 44.95538 | -93.52616 | 5500 ft | 276 kts | 76° |
| 2026-04-23 03:36 | 44.95993 | -93.49992 | 5134 ft | 274 kts | 76° |
| 2026-04-23 03:36 | 44.96447 | -93.47387 | 4769 ft | 273 kts | 76° |
| 2026-04-23 03:37 | 44.96880 | -93.44793 | 4412 ft | 269 kts | 81° |
| 2026-04-23 03:37 | 44.96768 | -93.42218 | 4074 ft | 258 kts | 106° |
| 2026-04-23 03:37 | 44.95970 | -93.40031 | 3739 ft | 244 kts | 126° |
| 2026-04-23 03:37 | 44.95045 | -93.38168 | 3408 ft | 221 kts | 122° |
| 2026-04-23 03:38 | 44.94327 | -93.36359 | 3200 ft | 197 kts | 119° |
| 2026-04-23 03:38 | 44.93687 | -93.34809 | 3168 ft | 173 kts | 122° |
| 2026-04-23 03:38 | 44.93061 | -93.33400 | 3092 ft | 166 kts | 122° |
| 2026-04-23 03:38 | 44.92478 | -93.31974 | 2693 ft | 168 kts | 119° |
| 2026-04-23 03:39 | 44.91926 | -93.30566 | 2397 ft | 160 kts | 120° |
| 2026-04-23 03:39 | 44.91351 | -93.29247 | 2097 ft | 157 kts | 124° |
| 2026-04-23 03:39 | 44.90756 | -93.27963 | 1806 ft | 154 kts | 123° |
| 2026-04-23 03:39 | 44.90195 | -93.26688 | 1558 ft | 153 kts | 122° |
| 2026-04-23 03:40 | 44.89832 | -93.25839 | 1378 ft | 153 kts | 122° |
| 2026-04-23 03:40 | 44.89283 | -93.24567 | 1121 ft | 151 kts | 121° |
| 2026-04-23 03:40 | 44.88739 | -93.23313 | 883 ft | 149 kts | 122° |
| 2026-04-23 03:40 | 44.88235 | -93.22137 | 823 ft | 128 kts | 122° |
| 2026-04-23 03:41 | 44.87867 | -93.21299 | 820 ft | 67 kts | 122° |
| 2026-04-23 03:41 | 44.87688 | -93.20898 | 823 ft | 34 kts | 121° |
| 2026-04-23 03:41 | 44.87683 | -93.20687 | 824 ft | 11 kts | 49° |
| 2026-04-23 03:41 | 44.87757 | -93.20625 | 822 ft | 12 kts | 9° |
| 2026-04-23 03:42 | 44.87817 | -93.20698 | 823 ft | 13 kts | 304° |
| 2026-04-23 03:42 | 44.87872 | -93.20814 | 822 ft | 15 kts | 302° |
| 2026-04-23 03:42 | 44.87926 | -93.20952 | 822 ft | 15 kts | 301° |
| 2026-04-23 03:42 | 44.87985 | -93.21086 | 823 ft | 17 kts | 301° |
| 2026-04-23 03:43 | 44.88016 | -93.21250 | 823 ft | 17 kts | 274° |
| 2026-04-23 03:43 | 44.88059 | -93.21411 | 822 ft | 19 kts | 312° |
| 2026-04-23 03:43 | 44.88157 | -93.21500 | 823 ft | 16 kts | 321° |
| 2026-04-23 03:43 | 44.88223 | -93.21642 | 820 ft | 18 kts | 301° |
| 2026-04-23 03:44 | 44.88292 | -93.21804 | 823 ft | 20 kts | 301° |
| 2026-04-23 03:44 | 44.88363 | -93.21934 | 823 ft | 13 kts | 322° |
| 2026-04-23 03:44 | 44.88444 | -93.21905 | 822 ft | 16 kts | 45° |
| 2026-04-23 03:44 | 44.88527 | -93.21785 | 824 ft | 18 kts | 45° |
| 2026-04-23 03:45 | 44.88623 | -93.21650 | 824 ft | 20 kts | 45° |
| 2026-04-23 03:45 | 44.88722 | -93.21512 | 823 ft | 19 kts | 44° |
| 2026-04-23 03:45 | 44.88767 | -93.21400 | 823 ft | 14 kts | 108° |
| 2026-04-23 03:45 | 44.88729 | -93.21259 | 823 ft | 17 kts | 115° |
| 2026-04-23 03:46 | 44.88667 | -93.21109 | 823 ft | 19 kts | 120° |
| 2026-04-23 03:46 | 44.88604 | -93.20936 | 821 ft | 17 kts | 116° |
| 2026-04-23 03:46 | 44.88559 | -93.20859 | 823 ft | 11 kts | 167° |
| 2026-04-23 03:46 | 44.88494 | -93.20884 | 823 ft | 8 kts | 211° |
| 2026-04-23 03:47 | 44.88469 | -93.20905 | 821 ft | 0 kts | 211° |